createdAt,value
2019-01-24T00:00:47.569Z,11.47
2019-01-24T00:03:14.930Z,12.03
2019-01-24T00:05:42.308Z,11.57
2019-01-24T00:08:09.824Z,11.90
2019-01-24T00:10:39.559Z,11.67
2019-01-24T00:13:07.029Z,10.13
2019-01-24T00:15:34.545Z,10.50
2019-01-24T00:18:02.023Z,10.40
2019-01-24T00:20:29.531Z,10.93
2019-01-24T00:22:57.000Z,9.53
2019-01-24T00:25:24.476Z,10.17
2019-01-24T00:27:51.861Z,10.40
2019-01-24T00:30:19.232Z,10.03
2019-01-24T00:32:46.668Z,9.77
2019-01-24T00:35:14.439Z,10.00
2019-01-24T00:37:41.801Z,10.50
2019-01-24T00:40:11.167Z,11.17
2019-01-24T00:42:38.567Z,9.27
2019-01-24T00:45:07.000Z,11.17
2019-01-24T00:47:34.373Z,9.13
2019-01-24T00:50:01.710Z,11.53
2019-01-24T00:52:29.189Z,10.80
2019-01-24T00:54:56.658Z,11.00
2019-01-24T00:57:24.034Z,11.17
2019-01-24T00:59:51.487Z,10.83
2019-01-24T01:02:18.968Z,10.27
2019-01-24T01:04:46.477Z,11.50
2019-01-24T01:07:13.984Z,11.87
2019-01-24T01:09:41.478Z,11.33
2019-01-24T01:12:08.966Z,10.37
2019-01-24T01:14:36.922Z,12.00
2019-01-24T01:17:04.441Z,10.53
2019-01-24T01:19:31.920Z,12.20
2019-01-24T01:21:59.397Z,11.30
2019-01-24T01:24:26.893Z,11.17
2019-01-24T01:26:54.283Z,9.47
2019-01-24T01:29:21.752Z,9.67
2019-01-24T01:31:49.210Z,8.27
2019-01-24T01:34:16.691Z,8.77
2019-01-24T01:36:44.167Z,8.83
2019-01-24T01:39:11.645Z,9.20
2019-01-24T01:41:39.103Z,8.40
2019-01-24T01:44:06.618Z,8.30
2019-01-24T01:46:33.971Z,9.60
2019-01-24T01:49:01.346Z,9.50
2019-01-24T01:51:28.797Z,8.43
2019-01-24T01:53:56.276Z,8.07
2019-01-24T01:56:23.712Z,8.67
2019-01-24T01:58:51.100Z,8.30
2019-01-24T02:01:18.578Z,8.50
2019-01-24T02:03:46.055Z,9.70
2019-01-24T02:06:13.457Z,9.47
2019-01-24T02:08:40.932Z,9.27
2019-01-24T02:11:08.423Z,8.50
2019-01-24T02:13:35.777Z,8.77
2019-01-24T02:16:03.411Z,8.13
2019-01-24T02:18:30.754Z,8.00
2019-01-24T02:20:58.097Z,9.07
2019-01-24T02:23:25.551Z,9.63
2019-01-24T02:25:53.046Z,7.43
2019-01-24T02:28:39.911Z,8.03
2019-01-24T02:31:07.684Z,8.73
2019-01-24T02:33:35.054Z,8.97
2019-01-24T02:36:02.663Z,8.80
2019-01-24T02:38:30.188Z,10.10
2019-01-24T02:40:57.628Z,10.57
2019-01-24T02:43:25.139Z,7.97
2019-01-24T02:45:52.496Z,9.50
2019-01-24T02:48:19.958Z,9.47
2019-01-24T02:50:47.470Z,9.63
2019-01-24T02:53:14.929Z,9.53
2019-01-24T02:55:42.350Z,8.37
2019-01-24T02:58:09.821Z,8.70
2019-01-24T03:00:37.176Z,9.97
2019-01-24T03:03:04.669Z,8.17
2019-01-24T03:05:32.039Z,8.50
2019-01-24T03:07:59.478Z,8.33
2019-01-24T03:10:27.005Z,9.93
2019-01-24T03:12:54.455Z,7.83
2019-01-24T03:15:22.021Z,8.47
2019-01-24T03:17:49.798Z,8.60
2019-01-24T03:20:17.273Z,7.70
2019-01-24T03:22:45.195Z,8.77
2019-01-24T03:25:13.163Z,9.03
2019-01-24T03:27:40.604Z,9.13
2019-01-24T03:30:11.043Z,8.80
2019-01-24T03:32:40.772Z,8.37
2019-01-24T03:35:11.150Z,9.17
2019-01-24T03:37:38.663Z,8.70
2019-01-24T03:40:07.965Z,8.83
2019-01-24T03:42:35.403Z,9.47
2019-01-24T03:45:04.337Z,9.57
2019-01-24T03:47:31.819Z,11.03
2019-01-24T03:49:59.321Z,9.17
2019-01-24T03:52:26.774Z,9.43
2019-01-24T03:54:54.135Z,10.50
2019-01-24T03:57:21.595Z,10.93
2019-01-24T03:59:49.185Z,10.87
2019-01-24T04:02:16.670Z,11.63
2019-01-24T04:04:44.167Z,10.43
2019-01-24T04:07:11.607Z,9.87
2019-01-24T04:09:39.090Z,10.47
2019-01-24T04:12:08.376Z,10.20
2019-01-24T04:14:35.808Z,9.80
2019-01-24T04:17:03.289Z,10.30
2019-01-24T04:19:30.752Z,10.53
2019-01-24T04:21:58.233Z,8.97
2019-01-24T04:24:25.680Z,10.50
2019-01-24T04:26:53.131Z,10.37
2019-01-24T04:29:20.542Z,10.77
2019-01-24T04:31:47.934Z,10.60
2019-01-24T04:34:15.304Z,9.10
2019-01-24T04:36:42.787Z,10.20
2019-01-24T04:39:10.302Z,10.73
2019-01-24T04:41:37.672Z,11.10
2019-01-24T04:44:05.064Z,11.23
2019-01-24T04:46:32.521Z,10.00
2019-01-24T04:48:59.946Z,9.97
2019-01-24T04:51:29.429Z,11.70
2019-01-24T04:53:56.921Z,10.27
2019-01-24T04:56:24.370Z,9.73
2019-01-24T04:58:51.762Z,10.60
2019-01-24T05:01:19.264Z,11.67
2019-01-24T05:03:46.763Z,9.67
2019-01-24T05:06:14.221Z,11.83
2019-01-24T05:08:41.698Z,11.87
2019-01-24T05:11:09.174Z,12.57
2019-01-24T05:13:36.636Z,12.10
2019-01-24T05:16:04.022Z,12.33
2019-01-24T05:18:31.449Z,13.47
2019-01-24T05:20:58.832Z,12.80
2019-01-24T05:23:26.284Z,12.50
2019-01-24T05:25:53.670Z,13.80
2019-01-24T05:28:21.091Z,13.77
2019-01-24T05:30:48.532Z,12.00
2019-01-24T05:33:16.016Z,12.40
2019-01-24T05:35:43.482Z,12.83
2019-01-24T05:38:10.860Z,13.57
2019-01-24T05:40:38.313Z,12.63
2019-01-24T05:43:05.705Z,13.57
2019-01-24T05:45:33.068Z,12.47
2019-01-24T05:48:00.558Z,14.23
2019-01-24T05:50:28.019Z,13.53
2019-01-24T05:52:55.521Z,11.00
2019-01-24T05:55:22.965Z,13.60
2019-01-24T05:57:50.406Z,11.83
2019-01-24T06:00:24.896Z,13.83
2019-01-24T06:02:52.392Z,11.83
2019-01-24T06:05:19.923Z,14.80
2019-01-24T06:07:47.372Z,13.67
2019-01-24T06:10:14.803Z,13.33
2019-01-24T06:12:42.199Z,12.23
2019-01-24T06:15:11.899Z,12.97
2019-01-24T06:17:39.338Z,10.30
2019-01-24T06:20:06.968Z,15.13
2019-01-24T06:22:34.451Z,14.07
2019-01-24T06:25:02.056Z,13.87
2019-01-24T06:27:29.643Z,15.40
2019-01-24T06:29:57.226Z,15.00
2019-01-24T06:32:24.681Z,13.83
2019-01-24T06:34:52.191Z,13.30
2019-01-24T06:37:19.583Z,14.37
2019-01-24T06:39:47.135Z,16.60
2019-01-24T06:42:14.625Z,12.63
2019-01-24T06:44:42.121Z,14.90
2019-01-24T06:47:09.569Z,16.37
2019-01-24T06:49:36.970Z,12.97
2019-01-24T06:52:04.545Z,11.87
2019-01-24T06:54:31.948Z,13.97
2019-01-24T06:56:59.405Z,16.13
2019-01-24T06:59:26.845Z,17.37
2019-01-24T07:01:54.368Z,16.80
2019-01-24T07:04:21.848Z,14.93
2019-01-24T07:06:49.195Z,15.93
2019-01-24T07:09:18.139Z,14.10
2019-01-24T07:11:45.585Z,14.73
2019-01-24T07:14:14.663Z,13.70
2019-01-24T07:16:44.137Z,14.77
2019-01-24T07:19:12.559Z,15.13
2019-01-24T07:21:40.028Z,13.47
2019-01-24T07:24:07.544Z,13.83
2019-01-24T07:26:35.019Z,14.20
2019-01-24T07:29:04.291Z,14.27
2019-01-24T07:31:31.790Z,14.50
2019-01-24T07:33:59.355Z,13.80
2019-01-24T07:36:26.855Z,14.00
2019-01-24T07:38:54.373Z,14.37
2019-01-24T07:41:21.883Z,14.10
2019-01-24T07:43:50.718Z,14.40
2019-01-24T07:46:18.327Z,13.73
2019-01-24T07:48:46.161Z,12.60
2019-01-24T07:51:15.206Z,15.13
2019-01-24T07:53:42.671Z,14.80
2019-01-24T07:56:10.313Z,15.43
2019-01-24T07:58:37.796Z,15.77
2019-01-24T08:01:05.408Z,16.10
2019-01-24T08:03:33.252Z,15.70
2019-01-24T08:06:00.656Z,15.87
2019-01-24T08:08:28.081Z,15.47
2019-01-24T08:10:55.574Z,15.57
2019-01-24T08:13:23.121Z,15.70
2019-01-24T08:15:50.614Z,16.03
2019-01-24T08:18:17.992Z,14.27
2019-01-24T08:20:45.589Z,14.83
2019-01-24T08:23:13.032Z,15.87
2019-01-24T08:25:40.446Z,15.87
2019-01-24T08:28:07.846Z,16.13
2019-01-24T08:30:35.313Z,15.43
2019-01-24T08:33:02.928Z,16.37
2019-01-24T08:35:30.849Z,16.73
2019-01-24T08:37:58.348Z,14.93
2019-01-24T08:40:25.800Z,16.00
2019-01-24T08:42:53.298Z,18.33
2019-01-24T08:45:20.771Z,15.33
2019-01-24T08:47:48.274Z,14.93
2019-01-24T08:50:18.503Z,15.93
2019-01-24T08:52:46.420Z,17.80
2019-01-24T08:55:20.130Z,17.47
2019-01-24T08:57:47.660Z,17.47
2019-01-24T09:00:17.085Z,16.53
2019-01-24T09:02:44.672Z,14.60
2019-01-24T09:05:12.407Z,15.60
2019-01-24T09:07:40.844Z,19.03
2019-01-24T09:10:10.963Z,17.90
2019-01-24T09:12:38.410Z,17.77
2019-01-24T09:15:07.116Z,16.87
2019-01-24T09:17:34.520Z,19.10
2019-01-24T09:20:02.002Z,19.17
2019-01-24T09:22:29.517Z,21.07
2019-01-24T09:24:56.971Z,20.23
2019-01-24T09:27:24.522Z,18.83
2019-01-24T09:29:51.984Z,16.77
2019-01-24T09:32:19.492Z,19.40
2019-01-24T09:34:46.982Z,17.77
2019-01-24T09:37:14.477Z,17.60
2019-01-24T09:39:41.970Z,15.90
2019-01-24T09:42:09.443Z,16.50
2019-01-24T09:44:36.896Z,18.73
2019-01-24T09:47:04.726Z,17.00
2019-01-24T09:49:32.210Z,17.47
2019-01-24T09:51:59.588Z,16.67
2019-01-24T09:54:27.052Z,17.03
2019-01-24T09:56:54.501Z,15.93
2019-01-24T09:59:22.004Z,17.97
2019-01-24T10:01:49.387Z,17.50
2019-01-24T10:04:16.771Z,15.87
2019-01-24T10:06:44.233Z,15.20
2019-01-24T10:09:11.603Z,15.07
2019-01-24T10:11:39.082Z,15.87
2019-01-24T10:14:06.570Z,15.73
2019-01-24T10:16:34.846Z,14.87
2019-01-24T10:19:02.247Z,13.80
2019-01-24T10:21:29.881Z,13.83
2019-01-24T10:23:57.348Z,14.43
2019-01-24T10:26:24.880Z,14.37
2019-01-24T10:28:52.429Z,14.03
2019-01-24T10:31:19.910Z,15.07
2019-01-24T10:33:47.401Z,15.10
2019-01-24T10:36:15.101Z,13.87
2019-01-24T10:38:42.636Z,14.80
2019-01-24T10:41:12.109Z,16.03
2019-01-24T10:43:39.564Z,15.17
2019-01-24T10:46:07.123Z,16.50
2019-01-24T10:48:34.599Z,16.73
2019-01-24T10:51:04.863Z,18.17
2019-01-24T10:53:32.397Z,15.23
2019-01-24T10:55:59.869Z,13.33
2019-01-24T10:58:27.373Z,14.77
2019-01-24T11:00:55.003Z,16.27
2019-01-24T11:03:22.482Z,13.77
2019-01-24T11:05:49.939Z,14.93
2019-01-24T11:08:17.309Z,15.57
2019-01-24T11:10:44.865Z,16.13
2019-01-24T11:13:12.317Z,15.97
2019-01-24T11:15:39.924Z,15.20
2019-01-24T11:18:07.509Z,16.07
2019-01-24T11:20:34.975Z,15.87
2019-01-24T11:23:02.439Z,15.07
2019-01-24T11:25:29.943Z,14.67
2019-01-24T11:27:57.569Z,15.03
2019-01-24T11:30:27.113Z,13.50
2019-01-24T11:32:54.886Z,15.50
2019-01-24T11:35:24.899Z,14.37
2019-01-24T11:37:52.757Z,15.27
2019-01-24T11:40:20.236Z,16.53
2019-01-24T11:42:47.921Z,14.70
2019-01-24T11:45:16.301Z,14.90
2019-01-24T11:47:43.669Z,15.67
2019-01-24T11:50:13.665Z,17.20
2019-01-24T11:52:41.158Z,17.27
2019-01-24T11:55:09.664Z,16.10
2019-01-24T11:57:37.117Z,14.23
2019-01-24T12:00:17.059Z,13.00
2019-01-24T12:02:44.511Z,13.17
2019-01-24T12:05:11.965Z,13.90
2019-01-24T12:07:39.458Z,13.67
2019-01-24T12:10:09.427Z,13.77
2019-01-24T12:12:36.931Z,14.10
2019-01-24T12:15:06.469Z,14.37
2019-01-24T12:17:34.162Z,13.77
2019-01-24T12:20:01.569Z,14.33
2019-01-24T12:22:28.951Z,12.00
2019-01-24T12:24:56.434Z,12.67
2019-01-24T12:27:23.922Z,11.17
2019-01-24T12:29:51.510Z,13.20
2019-01-24T12:32:18.957Z,16.57
2019-01-24T12:34:46.336Z,16.27
2019-01-24T12:37:13.852Z,15.93
2019-01-24T12:39:41.307Z,16.63
2019-01-24T12:42:08.770Z,16.17
2019-01-24T12:44:36.267Z,17.63
2019-01-24T12:47:07.038Z,17.47
2019-01-24T12:49:34.419Z,16.17
2019-01-24T12:52:01.931Z,16.57
2019-01-24T12:54:29.426Z,20.33
2019-01-24T12:56:57.002Z,16.33
2019-01-24T12:59:24.541Z,17.60
2019-01-24T13:01:52.049Z,17.93
2019-01-24T13:04:19.535Z,16.40
2019-01-24T13:06:47.068Z,17.90
2019-01-24T13:09:14.552Z,16.37
2019-01-24T13:11:42.063Z,16.40
2019-01-24T13:14:09.589Z,18.00
2019-01-24T13:16:37.092Z,17.87
2019-01-24T13:19:04.626Z,16.43
2019-01-24T13:21:32.788Z,16.80
2019-01-24T13:24:00.314Z,17.77
2019-01-24T13:26:28.174Z,14.97
2019-01-24T13:28:55.645Z,13.07
2019-01-24T13:31:24.011Z,13.67
2019-01-24T13:33:51.986Z,13.50
2019-01-24T13:36:19.494Z,13.17
2019-01-24T13:38:46.960Z,13.07
2019-01-24T13:41:14.490Z,13.43
2019-01-24T13:43:42.340Z,12.53
2019-01-24T13:46:10.347Z,11.87
2019-01-24T13:48:37.903Z,12.57
2019-01-24T13:51:06.581Z,14.20
2019-01-24T13:53:34.016Z,13.10
2019-01-24T13:56:01.512Z,13.83
2019-01-24T13:58:29.028Z,12.67
2019-01-24T14:00:56.516Z,14.87
2019-01-24T14:03:42.530Z,13.80
2019-01-24T14:06:10.125Z,13.33
2019-01-24T14:08:37.591Z,12.17
2019-01-24T14:11:05.124Z,13.83
2019-01-24T14:13:35.308Z,12.10
2019-01-24T14:16:03.198Z,13.47
2019-01-24T14:18:30.736Z,13.00
2019-01-24T14:20:58.182Z,13.43
2019-01-24T14:23:25.714Z,13.20
2019-01-24T14:25:53.138Z,13.27
2019-01-24T14:28:20.645Z,12.37
2019-01-24T14:30:48.182Z,13.27
2019-01-24T14:33:15.684Z,14.97
2019-01-24T14:35:43.211Z,14.77
2019-01-24T14:38:10.664Z,13.97
2019-01-24T14:40:38.124Z,13.47
2019-01-24T14:43:05.606Z,13.77
2019-01-24T14:45:35.630Z,13.47
2019-01-24T14:48:03.254Z,13.23
2019-01-24T14:50:30.843Z,12.07
2019-01-24T14:52:58.748Z,14.30
2019-01-24T14:55:26.145Z,13.27
2019-01-24T14:57:53.620Z,15.07
2019-01-24T15:00:32.756Z,12.90
2019-01-24T15:03:00.242Z,12.70
2019-01-24T15:05:27.792Z,11.47
2019-01-24T15:07:55.299Z,12.97
2019-01-24T15:10:23.486Z,14.27
2019-01-24T15:12:51.095Z,12.10
2019-01-24T15:15:20.219Z,14.40
2019-01-24T15:17:47.610Z,12.00
2019-01-24T15:20:16.518Z,12.53
2019-01-24T15:22:44.495Z,12.30
2019-01-24T15:25:12.429Z,12.83
2019-01-24T15:27:39.799Z,12.67
2019-01-24T15:30:10.757Z,13.37
2019-01-24T15:32:38.395Z,12.87
2019-01-24T15:35:06.326Z,12.13
2019-01-24T15:37:34.095Z,12.47
2019-01-24T15:40:01.577Z,13.80
2019-01-24T15:42:29.105Z,13.03
2019-01-24T15:44:56.541Z,13.33
2019-01-24T15:47:24.052Z,13.97
2019-01-24T15:49:51.549Z,12.77
2019-01-24T15:52:19.161Z,12.37
2019-01-24T15:54:46.725Z,12.27
2019-01-24T15:57:14.227Z,12.50
2019-01-24T15:59:41.668Z,13.10
2019-01-24T16:02:09.198Z,13.17
2019-01-24T16:04:38.509Z,12.03
2019-01-24T16:07:05.973Z,12.47
2019-01-24T16:09:33.817Z,13.10
2019-01-24T16:12:01.306Z,10.77
2019-01-24T16:14:28.883Z,12.07
2019-01-24T16:16:57.289Z,13.07
2019-01-24T16:19:25.874Z,12.33
2019-01-24T16:21:53.355Z,13.07
2019-01-24T16:24:20.892Z,13.20
2019-01-24T16:26:48.346Z,13.00
2019-01-24T16:29:16.251Z,12.73
2019-01-24T16:31:43.695Z,12.50
2019-01-24T16:34:11.269Z,12.93
2019-01-24T16:36:39.201Z,13.50
2019-01-24T16:39:10.847Z,11.30
2019-01-24T16:41:38.343Z,11.70
2019-01-24T16:44:05.832Z,13.20
2019-01-24T16:46:33.353Z,13.50
2019-01-24T16:49:00.890Z,11.97
2019-01-24T16:51:29.341Z,12.20
2019-01-24T16:53:56.830Z,12.97
2019-01-24T16:56:24.711Z,13.43
2019-01-24T16:58:52.160Z,16.97
2019-01-24T17:01:21.392Z,12.83
2019-01-24T17:03:48.912Z,14.03
2019-01-24T17:06:16.421Z,12.47
2019-01-24T17:08:44.954Z,11.80
2019-01-24T17:11:12.417Z,12.33
2019-01-24T17:13:39.872Z,14.40
2019-01-24T17:16:08.284Z,15.17
2019-01-24T17:18:35.814Z,15.47
2019-01-24T17:21:03.633Z,14.70
2019-01-24T17:23:31.124Z,14.37
2019-01-24T17:25:58.476Z,15.17
2019-01-24T17:28:25.952Z,15.17
2019-01-24T17:30:53.475Z,14.80
2019-01-24T17:33:20.872Z,15.63
2019-01-24T17:35:48.411Z,14.30
2019-01-24T17:38:15.874Z,12.63
2019-01-24T17:40:43.479Z,16.90
2019-01-24T17:43:12.028Z,14.93
2019-01-24T17:45:39.549Z,16.53
2019-01-24T17:48:07.038Z,16.20
2019-01-24T17:50:34.482Z,15.93
2019-01-24T17:53:02.000Z,15.17
2019-01-24T17:55:38.005Z,14.50
2019-01-24T17:58:07.822Z,15.63
2019-01-24T18:00:38.698Z,15.40
2019-01-24T18:03:06.049Z,16.00
2019-01-24T18:05:33.782Z,14.57
2019-01-24T18:08:01.236Z,15.13
2019-01-24T18:10:28.748Z,16.00
2019-01-24T18:12:56.345Z,17.97
2019-01-24T18:15:26.868Z,14.90
2019-01-24T18:17:54.374Z,16.70
2019-01-24T18:20:23.758Z,15.67
2019-01-24T18:22:51.444Z,15.60
2019-01-24T18:25:19.585Z,17.00
2019-01-24T18:27:47.021Z,18.47
2019-01-24T18:30:17.115Z,15.07
2019-01-24T18:32:44.944Z,14.73
2019-01-24T18:35:12.480Z,15.97
2019-01-24T18:37:39.994Z,17.27
2019-01-24T18:40:10.562Z,15.40
2019-01-24T18:42:40.861Z,15.30
2019-01-24T18:45:13.953Z,15.33
2019-01-24T18:47:41.462Z,15.40
2019-01-24T18:50:12.631Z,14.43
2019-01-24T18:52:40.181Z,15.50
2019-01-24T18:55:08.088Z,13.93
2019-01-24T18:57:37.814Z,14.83
2019-01-24T19:00:07.644Z,15.97
2019-01-24T19:02:35.118Z,14.93
2019-01-24T19:05:03.021Z,16.20
2019-01-24T19:07:30.904Z,16.37
2019-01-24T19:09:58.443Z,15.00
2019-01-24T19:12:25.806Z,14.30
2019-01-24T19:14:53.362Z,13.73
2019-01-24T19:17:20.775Z,14.97
2019-01-24T19:19:48.334Z,14.03
2019-01-24T19:22:15.855Z,15.53
2019-01-24T19:24:43.383Z,16.13
2019-01-24T19:27:10.977Z,21.03
2019-01-24T19:29:38.468Z,19.33
2019-01-24T19:32:05.871Z,17.37
2019-01-24T19:34:33.381Z,17.83
2019-01-24T19:37:00.874Z,14.13
2019-01-24T19:39:28.331Z,14.43
2019-01-24T19:41:55.810Z,13.30
2019-01-24T19:44:23.291Z,13.57
2019-01-24T19:46:50.794Z,15.37
2019-01-24T19:49:25.536Z,14.87
2019-01-24T19:51:53.033Z,16.87
2019-01-24T19:54:22.825Z,15.03
2019-01-24T19:56:50.543Z,15.17
2019-01-24T19:59:23.378Z,15.63
2019-01-24T20:01:54.357Z,14.60
2019-01-24T20:04:21.790Z,13.53
2019-01-24T20:06:49.326Z,15.73
2019-01-24T20:09:16.866Z,15.50
2019-01-24T20:11:47.171Z,14.00
2019-01-24T20:14:17.425Z,15.27
2019-01-24T20:16:47.968Z,13.57
2019-01-24T20:19:15.481Z,13.50
2019-01-24T20:21:43.856Z,12.73
2019-01-24T20:24:11.320Z,14.53
2019-01-24T20:26:42.018Z,13.50
2019-01-24T20:29:09.558Z,13.90
2019-01-24T20:31:37.291Z,13.43
2019-01-24T20:34:12.198Z,14.20
2019-01-24T20:36:42.775Z,13.60
2019-01-24T20:39:10.336Z,14.97
2019-01-24T20:41:38.087Z,15.00
2019-01-24T20:44:08.183Z,14.60
2019-01-24T20:46:35.692Z,21.07
2019-01-24T20:49:03.391Z,17.70
2019-01-24T20:51:30.968Z,15.80
2019-01-24T20:53:58.638Z,13.50
2019-01-24T20:56:26.205Z,14.87
2019-01-24T20:58:53.910Z,14.37
2019-01-24T21:01:24.291Z,12.97
2019-01-24T21:03:55.455Z,11.97
2019-01-24T21:06:23.414Z,11.97
2019-01-24T21:08:50.948Z,15.27
2019-01-24T21:11:21.977Z,15.07
2019-01-24T21:13:52.210Z,15.70
2019-01-24T21:16:19.838Z,14.77
2019-01-24T21:18:47.435Z,13.50
2019-01-24T21:21:15.070Z,14.60
2019-01-24T21:23:42.746Z,11.07
2019-01-24T21:26:10.238Z,15.30
2019-01-24T21:28:37.752Z,13.57
2019-01-24T21:31:05.331Z,13.97
2019-01-24T21:33:33.018Z,13.87
2019-01-24T21:36:02.710Z,14.13
2019-01-24T21:38:33.021Z,15.90
2019-01-24T21:41:02.561Z,15.47
2019-01-24T21:43:33.237Z,13.43
2019-01-24T21:46:02.216Z,15.93
2019-01-24T21:48:29.770Z,16.23
2019-01-24T21:50:57.294Z,16.77
2019-01-24T21:53:24.897Z,15.63
2019-01-24T21:55:52.456Z,16.50
2019-01-24T21:58:21.087Z,19.07
2019-01-24T22:00:48.682Z,15.93
2019-01-24T22:03:16.232Z,18.90
2019-01-24T22:05:43.762Z,20.57
2019-01-24T22:08:11.418Z,18.23
2019-01-24T22:10:38.923Z,17.13
2019-01-24T22:13:06.436Z,18.67
2019-01-24T22:15:34.091Z,17.20
2019-01-24T22:18:05.296Z,15.93
2019-01-24T22:20:32.815Z,15.83
2019-01-24T22:23:00.309Z,13.67
2019-01-24T22:25:31.183Z,15.03
2019-01-24T22:27:58.822Z,18.97
2019-01-24T22:30:37.934Z,17.07
2019-01-24T22:33:05.668Z,17.10
2019-01-24T22:35:33.173Z,13.63
2019-01-24T22:38:00.736Z,15.27
2019-01-24T22:40:28.276Z,16.40
2019-01-24T22:42:55.835Z,19.13
2019-01-24T22:45:23.780Z,17.93
2019-01-24T22:47:51.288Z,16.33
2019-01-24T22:50:19.171Z,16.80
2019-01-24T22:52:46.680Z,15.30
2019-01-24T22:55:14.329Z,15.47
2019-01-24T22:57:41.871Z,14.17
2019-01-24T23:01:13.396Z,16.30
2019-01-24T23:04:02.183Z,15.83
2019-01-24T23:06:29.730Z,14.27
2019-01-24T23:08:57.239Z,12.57
2019-01-24T23:11:24.725Z,15.07
2019-01-24T23:13:52.264Z,13.20
2019-01-24T23:16:19.804Z,13.67
2019-01-24T23:18:47.358Z,15.10
2019-01-24T23:21:14.962Z,14.23
2019-01-24T23:23:42.613Z,15.17
2019-01-24T23:26:10.175Z,13.37
2019-01-24T23:28:37.698Z,14.57
2019-01-24T23:31:05.270Z,14.93
2019-01-24T23:33:32.813Z,13.60
2019-01-24T23:36:00.347Z,12.67
2019-01-24T23:38:27.855Z,11.83
2019-01-24T23:40:55.380Z,12.00
2019-01-24T23:43:22.969Z,15.53
2019-01-24T23:45:50.540Z,16.47
2019-01-24T23:48:18.041Z,14.10
2019-01-24T23:50:45.543Z,13.57
2019-01-24T23:53:13.212Z,13.60
2019-01-24T23:55:40.700Z,15.37
2019-01-24T23:58:08.180Z,15.83
